Time;durP1;ratioP1;P1;durP2;ratioP2;P2;SDS_P1;SDS_P2;PMS_P1;PMS_P2;Temp;Humidity;BMP_temperature;BMP_pressure;BME280_temperature;BME280_humidity;BME280_pressure;Samples;Min_cycle;Max_cycle;Signal;HPM_P1;HPM_P2
2023/07/11 00:02:04;;;;;;;8.83;4.63;;;;;;;25.35;42.70;101262.00;6273755;22;20442;-76
2023/07/11 00:04:29;;;;;;;12.37;4.80;;;;;;;25.35;42.68;101263.88;6273899;22;20362;-76
2023/07/11 00:06:55;;;;;;;12.57;4.97;;;;;;;25.29;42.82;101260.31;6272482;22;20351;-76
2023/07/11 00:09:22;;;;;;;8.80;4.87;;;;;;;25.29;42.92;101264.91;6273429;22;20343;-76
2023/07/11 00:11:47;;;;;;;8.55;4.60;;;;;;;25.24;43.04;101257.53;6273618;22;20336;-76
2023/07/11 00:14:13;;;;;;;9.00;4.83;;;;;;;25.22;43.14;101251.50;6273958;22;20355;-76
2023/07/11 00:16:38;;;;;;;10.83;4.77;;;;;;;25.15;43.23;101259.84;6274083;22;20335;-75
2023/07/11 00:19:04;;;;;;;11.18;4.80;;;;;;;25.11;43.44;101257.91;6274017;22;20343;-75
2023/07/11 00:21:29;;;;;;;10.13;4.90;;;;;;;24.91;44.28;101259.31;6273787;22;20462;-76
2023/07/11 00:24:03;;;;;;;12.70;5.50;;;;;;;24.82;44.08;101241.84;6273844;22;20358;-75
2023/07/11 00:26:32;;;;;;;11.00;5.00;;;;;;;24.69;44.80;101263.91;6274372;22;20339;-76
2023/07/11 00:29:14;;;;;;;11.98;5.40;;;;;;;24.54;45.16;101259.94;6274389;22;20445;-76
2023/07/11 00:31:39;;;;;;;8.88;4.40;;;;;;;24.54;45.03;101259.94;6273903;22;20630;-76
2023/07/11 00:34:05;;;;;;;10.87;5.00;;;;;;;24.41;45.43;101255.63;6275427;22;20354;-76
2023/07/11 00:36:30;;;;;;;12.77;5.17;;;;;;;24.42;45.36;101260.00;6276516;22;20791;-76
2023/07/11 00:38:56;;;;;;;8.70;4.60;;;;;;;24.38;45.51;101247.19;6274954;22;20351;-76
2023/07/11 00:41:22;;;;;;;12.47;5.63;;;;;;;24.33;45.57;101247.13;6276164;22;20374;-76
2023/07/11 00:43:48;;;;;;;10.05;5.07;;;;;;;24.26;45.60;101252.72;6275964;22;20353;-76
2023/07/11 00:46:16;;;;;;;9.10;4.90;;;;;;;24.19;45.63;101247.47;6276528;22;20454;-76
2023/07/11 00:48:48;;;;;;;12.80;4.95;;;;;;;24.27;45.61;101248.09;6275996;22;20366;-76
2023/07/11 00:51:18;;;;;;;11.30;5.43;;;;;;;24.24;45.69;101250.25;6275807;22;20351;-76
2023/07/11 00:53:44;;;;;;;11.48;5.35;;;;;;;24.30;45.63;101258.47;6275333;22;20336;-76
2023/07/11 00:56:14;;;;;;;11.00;5.43;;;;;;;24.30;45.40;101243.00;6280031;22;20904;-75
2023/07/11 00:58:41;;;;;;;9.50;5.18;;;;;;;24.33;45.18;101245.22;6306636;22;20340;-74
2023/07/11 01:01:09;;;;;;;12.40;5.05;;;;;;;24.38;44.99;101239.88;6306611;22;20384;-75
2023/07/11 01:03:34;;;;;;;11.73;5.50;;;;;;;24.45;45.15;101245.09;6306454;22;20381;-75
2023/07/11 01:06:00;;;;;;;11.40;5.70;;;;;;;24.42;44.80;101229.38;6306422;22;20338;-75
2023/07/11 01:08:26;;;;;;;9.88;5.00;;;;;;;24.52;44.64;101234.91;6306086;22;20751;-75
2023/07/11 01:10:52;;;;;;;7.57;4.78;;;;;;;24.54;44.52;101232.81;6306501;22;20646;-75
2023/07/11 01:13:17;;;;;;;11.77;5.30;;;;;;;24.61;44.46;101233.47;6306252;22;21015;-75
2023/07/11 01:15:43;;;;;;;9.53;5.27;;;;;;;24.63;44.34;101227.75;6306342;22;20427;-75
2023/07/11 01:18:08;;;;;;;10.83;5.37;;;;;;;24.60;44.08;101223.69;6306278;22;20334;-75
2023/07/11 01:20:34;;;;;;;11.25;5.40;;;;;;;24.64;43.98;101221.28;6305700;22;20365;-75
2023/07/11 01:22:59;;;;;;;9.93;5.07;;;;;;;24.67;43.74;101217.25;6306068;22;20338;-75
2023/07/11 01:25:24;;;;;;;12.03;5.30;;;;;;;24.69;43.78;101207.78;6306374;22;20432;-75
2023/07/11 01:27:50;;;;;;;9.90;5.30;;;;;;;24.71;43.71;101204.84;6305988;22;20783;-76
2023/07/11 01:30:19;;;;;;;11.55;5.20;;;;;;;24.76;43.53;101204.91;6279184;22;20373;-75
2023/07/11 01:32:44;;;;;;;11.82;5.20;;;;;;;24.79;43.46;101210.63;6306394;22;20337;-75
2023/07/11 01:35:10;;;;;;;13.27;5.10;;;;;;;24.83;43.16;101207.41;6305878;22;20330;-75
2023/07/11 01:37:36;;;;;;;11.23;5.32;;;;;;;24.82;43.32;101206.59;6305917;22;20345;-75
2023/07/11 01:40:02;;;;;;;10.30;5.20;;;;;;;24.86;43.08;101191.44;6305870;22;20352;-76
2023/07/11 01:42:28;;;;;;;10.38;4.97;;;;;;;24.87;43.18;101198.53;6305976;22;20330;-75
2023/07/11 01:44:53;;;;;;;11.30;5.20;;;;;;;24.81;43.17;101185.97;6306772;22;20334;-75
2023/07/11 01:47:19;;;;;;;12.63;5.20;;;;;;;24.77;43.18;101182.13;6307737;22;20763;-75
2023/07/11 01:49:44;;;;;;;11.10;4.93;;;;;;;24.78;43.25;101184.59;6307461;22;20697;-76
2023/07/11 01:52:23;;;;;;;8.97;4.90;;;;;;;24.78;43.18;101179.16;6305557;22;20385;-75
2023/07/11 01:54:49;;;;;;;10.90;5.10;;;;;;;24.85;43.04;101178.97;6305970;22;20341;-76
2023/07/11 01:57:15;;;;;;;12.03;5.40;;;;;;;24.85;42.95;101175.41;6305778;22;20373;-75
2023/07/11 01:59:41;;;;;;;13.00;5.00;;;;;;;24.76;43.08;101175.88;6306529;22;20381;-76
2023/07/11 02:02:08;;;;;;;9.02;5.30;;;;;;;24.70;43.18;101179.59;6279114;22;20868;-75
2023/07/11 02:04:35;;;;;;;11.00;5.30;;;;;;;24.69;43.32;101174.44;6305674;22;20338;-75
2023/07/11 02:07:01;;;;;;;12.90;5.30;;;;;;;24.65;43.48;101181.44;6305277;22;20338;-75
2023/07/11 02:09:28;;;;;;;9.10;5.10;;;;;;;24.59;43.40;101177.84;6306004;22;20429;-76
2023/07/11 02:11:54;;;;;;;10.93;5.40;;;;;;;24.56;43.42;101167.50;6306068;22;20326;-76
2023/07/11 02:14:20;;;;;;;9.27;5.20;;;;;;;24.54;43.54;101172.34;6278804;22;20892;-75
2023/07/11 02:16:48;;;;;;;10.07;4.97;;;;;;;24.54;43.31;101184.03;6305738;22;20802;-75
2023/07/11 02:19:16;;;;;;;9.80;4.97;;;;;;;24.52;43.51;101177.19;6305422;22;20863;-75
2023/07/11 02:21:41;;;;;;;8.50;5.32;;;;;;;24.47;43.53;101177.97;6306442;22;20369;-76
2023/07/11 02:24:10;;;;;;;10.47;5.00;;;;;;;24.48;43.46;101173.34;6305830;22;20830;-75
2023/07/11 02:26:35;;;;;;;10.82;4.88;;;;;;;24.47;43.69;101177.97;6305634;22;20775;-74
2023/07/11 02:29:01;;;;;;;9.02;5.07;;;;;;;24.44;43.69;101164.91;6278705;22;20334;-75
2023/07/11 02:31:27;;;;;;;9.60;5.40;;;;;;;24.47;43.52;101168.97;6305904;22;20341;-76
2023/07/11 02:33:53;;;;;;;11.95;4.90;;;;;;;24.48;43.55;101171.44;6305313;22;20341;-76
2023/07/11 02:36:19;;;;;;;9.90;5.27;;;;;;;24.41;43.71;101168.09;6305647;22;20342;-75
2023/07/11 02:38:44;;;;;;;8.90;5.00;;;;;;;24.37;43.97;101181.34;6306281;22;20341;-75
2023/07/11 02:41:10;;;;;;;11.83;5.00;;;;;;;24.35;43.64;101167.22;6305959;22;20365;-75
2023/07/11 02:43:35;;;;;;;10.05;5.28;;;;;;;24.45;43.44;101168.41;6278463;22;20349;-75
2023/07/11 02:46:01;;;;;;;10.43;5.40;;;;;;;24.49;43.47;101172.25;6305476;22;20333;-75
2023/07/11 02:48:26;;;;;;;8.80;4.73;;;;;;;24.49;43.49;101167.69;6305075;22;20345;-75
2023/07/11 02:50:52;;;;;;;11.65;5.45;;;;;;;24.51;43.45;101170.94;6304077;22;20341;-75
2023/07/11 02:53:18;;;;;;;9.57;4.97;;;;;;;24.50;43.25;101172.00;6304636;22;20510;-75
2023/07/11 02:55:46;;;;;;;10.80;5.00;;;;;;;24.43;43.54;101171.38;6304610;22;20360;-76
2023/07/11 02:58:11;;;;;;;8.00;4.93;;;;;;;24.48;43.39;101167.94;6304329;22;20763;-75
2023/07/11 03:00:37;;;;;;;9.70;5.15;;;;;;;24.49;43.40;101175.81;6302349;22;20426;-76
2023/07/11 03:03:03;;;;;;;10.53;5.17;;;;;;;24.43;43.52;101176.78;6299969;22;20334;-76
2023/07/11 03:05:29;;;;;;;9.07;5.13;;;;;;;24.45;43.44;101171.13;6301830;22;20372;-75
2023/07/11 03:07:55;;;;;;;11.07;5.30;;;;;;;24.51;43.00;101176.38;6303806;22;20334;-75
2023/07/11 03:10:20;;;;;;;8.80;5.23;;;;;;;24.66;42.83;101178.47;6303668;22;20345;-75
2023/07/11 03:12:46;;;;;;;10.40;5.07;;;;;;;24.74;42.49;101186.16;6301872;22;21034;-75
2023/07/11 03:15:12;;;;;;;9.27;4.93;;;;;;;24.76;42.35;101189.44;6303424;22;20350;-76
2023/07/11 03:17:37;;;;;;;9.00;4.83;;;;;;;24.81;42.08;101175.09;6304356;22;20341;-75
2023/07/11 03:20:03;;;;;;;10.85;5.15;;;;;;;24.85;41.98;101176.25;6277319;22;20342;-75
2023/07/11 03:22:29;;;;;;;8.40;4.77;;;;;;;24.88;41.81;101183.06;6304665;22;20330;-75
2023/07/11 03:24:54;;;;;;;9.57;5.05;;;;;;;24.87;41.84;101171.41;6304692;22;20330;-76
2023/07/11 03:27:20;;;;;;;8.47;4.80;;;;;;;24.94;41.82;101176.63;6304538;22;20344;-75
2023/07/11 03:29:45;;;;;;;10.33;4.47;;;;;;;24.96;41.71;101182.63;6304618;22;20424;-76
2023/07/11 03:32:12;;;;;;;9.88;5.15;;;;;;;24.93;41.86;101180.41;6304282;22;20335;-76
2023/07/11 03:34:37;;;;;;;9.38;5.13;;;;;;;24.93;41.60;101178.50;6304474;22;20647;-75
2023/07/11 03:37:03;;;;;;;11.00;5.47;;;;;;;24.96;41.69;101182.63;6304868;22;20330;-76
2023/07/11 03:39:29;;;;;;;12.35;4.75;;;;;;;25.02;41.56;101180.78;6304506;22;20838;-76
2023/07/11 03:41:54;;;;;;;9.87;4.70;;;;;;;24.99;41.52;101174.78;6304424;22;20451;-76
2023/07/11 03:44:20;;;;;;;8.77;4.93;;;;;;;25.08;41.38;101179.75;6304461;22;20345;-76
2023/07/11 03:46:45;;;;;;;10.73;5.28;;;;;;;25.14;41.28;101184.16;6303974;22;20628;-75
2023/07/11 03:49:11;;;;;;;11.70;5.30;;;;;;;25.08;41.50;101190.59;6304312;22;20331;-76
2023/07/11 03:51:36;;;;;;;11.17;5.00;;;;;;;24.99;41.62;101180.22;6304356;22;20452;-75
2023/07/11 03:54:03;;;;;;;10.10;5.10;;;;;;;25.08;41.64;101191.41;6304366;22;20358;-76
2023/07/11 03:56:28;;;;;;;8.40;5.00;;;;;;;25.23;41.57;101192.63;6304145;22;20377;-76
2023/07/11 03:58:54;;;;;;;9.90;4.80;;;;;;;25.26;41.16;101194.88;6304307;22;20380;-76
2023/07/11 04:01:20;;;;;;;11.07;4.87;;;;;;;25.39;41.10;101197.19;6276059;22;20369;-76
2023/07/11 04:03:45;;;;;;;10.63;5.15;;;;;;;25.49;40.82;101196.44;6302223;22;20632;-76
2023/07/11 04:06:11;;;;;;;9.73;4.82;;;;;;;25.59;40.54;101193.81;6302246;22;20809;-76
2023/07/11 04:08:37;;;;;;;11.07;5.57;;;;;;;25.67;40.19;101190.63;6301853;22;20804;-77
2023/07/11 04:11:03;;;;;;;10.18;5.30;;;;;;;25.80;40.24;101200.22;6301835;22;20330;-76
2023/07/11 04:13:28;;;;;;;12.27;4.87;;;;;;;25.83;39.90;101196.19;6302354;22;20333;-76
2023/07/11 04:15:54;;;;;;;12.20;5.13;;;;;;;25.91;39.79;101198.38;6301711;22;20365;-75
2023/07/11 04:18:19;;;;;;;12.30;5.23;;;;;;;26.06;39.67;101203.16;6303033;22;20828;-76
2023/07/11 04:20:48;;;;;;;12.27;5.40;;;;;;;26.20;39.26;101206.22;6304054;22;20389;-75
2023/07/11 04:23:14;;;;;;;10.93;5.68;;;;;;;26.32;39.24;101220.41;6304436;22;20797;-76
2023/07/11 04:25:40;;;;;;;12.02;5.88;;;;;;;26.41;39.05;101204.44;6303955;22;20341;-75
2023/07/11 04:28:06;;;;;;;13.88;5.85;;;;;;;26.56;38.98;101206.41;6303612;22;20390;-77
2023/07/11 04:30:32;;;;;;;12.68;5.70;;;;;;;26.69;38.98;101206.75;6276902;22;20342;-75
2023/07/11 04:32:58;;;;;;;10.88;5.05;;;;;;;26.81;38.68;101205.72;6276192;22;20604;-75
2023/07/11 04:35:23;;;;;;;12.57;4.77;;;;;;;26.98;38.55;101206.31;6302035;22;20344;-76
2023/07/11 04:37:49;;;;;;;10.63;5.80;;;;;;;27.11;38.29;101199.53;6302181;22;20647;-76
2023/07/11 04:40:15;;;;;;;10.23;4.77;;;;;;;27.27;38.26;101200.41;6303909;22;20376;-75
2023/07/11 04:42:40;;;;;;;9.80;4.90;;;;;;;27.35;38.25;101216.22;6304079;22;20369;-76
2023/07/11 04:45:08;;;;;;;10.07;5.13;;;;;;;27.43;37.76;101212.13;6301704;22;20349;-77
2023/07/11 04:47:34;;;;;;;15.75;5.82;;;;;;;27.52;37.75;101215.16;6301413;22;20395;-74
2023/07/11 04:50:00;;;;;;;11.98;5.50;;;;;;;27.64;38.01;101215.66;6301377;22;20334;-74
2023/07/11 04:52:25;;;;;;;15.32;5.93;;;;;;;27.82;37.49;101211.56;6301436;22;20349;-74
2023/07/11 04:54:51;;;;;;;12.47;5.63;;;;;;;27.90;37.79;101211.06;6301372;22;20338;-74
2023/07/11 04:57:16;;;;;;;14.10;5.97;;;;;;;28.03;37.40;101212.41;6301491;22;20456;-74
2023/07/11 04:59:42;;;;;;;10.85;5.35;;;;;;;28.12;37.24;101201.75;6303089;22;20712;-74
2023/07/11 05:02:07;;;;;;;9.98;5.38;;;;;;;28.05;37.71;101212.94;6304420;22;20365;-75
2023/07/11 05:04:33;;;;;;;8.18;4.88;;;;;;;28.12;37.66;101215.38;6304357;22;20419;-74
2023/07/11 05:07:00;;;;;;;9.50;4.97;;;;;;;28.38;37.32;101214.22;6304316;22;20331;-75
2023/07/11 05:09:28;;;;;;;9.13;4.75;;;;;;;28.50;36.73;101215.81;6304181;22;20774;-76
2023/07/11 05:11:53;;;;;;;12.40;5.05;;;;;;;28.45;37.07;101213.09;6304610;22;20330;-76
2023/07/11 05:14:19;;;;;;;7.60;4.35;;;;;;;28.50;36.70;101216.63;6303897;22;20424;-74
2023/07/11 05:16:45;;;;;;;10.55;4.50;;;;;;;28.50;37.09;101218.56;6304288;22;20425;-74
2023/07/11 05:19:10;;;;;;;5.73;4.07;;;;;;;28.58;37.25;101223.47;6302597;22;20346;-74
2023/07/11 05:21:36;;;;;;;10.10;4.60;;;;;;;28.57;37.60;101221.81;6305985;22;20361;-74
2023/07/11 05:24:01;;;;;;;8.57;4.38;;;;;;;28.68;37.08;101211.69;6306242;22;20776;-73
2023/07/11 05:26:27;;;;;;;6.80;4.10;;;;;;;28.77;36.89;101218.19;6305484;22;20357;-74
2023/07/11 05:28:53;;;;;;;11.60;4.77;;;;;;;28.89;36.61;101215.13;6305520;22;20334;-74
2023/07/11 05:31:18;;;;;;;8.15;4.43;;;;;;;28.95;36.54;101227.66;6305831;22;20341;-74
2023/07/11 05:33:44;;;;;;;8.30;4.25;;;;;;;28.90;37.15;101230.41;6305043;22;20372;-74
2023/07/11 05:36:37;;;;;;;11.90;4.97;;;;;;;29.11;36.80;101229.19;6304767;22;20341;-73
2023/07/11 05:39:10;;;;;;;8.03;4.47;;;;;;;29.07;37.04;101239.03;6300755;22;20342;-74
2023/07/11 05:41:38;;;;;;;7.10;3.92;;;;;;;28.83;37.00;101238.91;6305893;22;20365;-74
2023/07/11 05:44:04;;;;;;;7.05;4.13;;;;;;;28.85;37.21;101235.91;6305833;22;20330;-74
2023/07/11 05:46:31;;;;;;;5.97;4.07;;;;;;;28.99;36.98;101228.72;6305168;22;20337;-74
2023/07/11 05:48:57;;;;;;;7.40;4.00;;;;;;;29.32;36.30;101229.91;6306044;22;20344;-74
2023/07/11 05:51:24;;;;;;;8.63;3.95;;;;;;;29.50;36.19;101233.88;6306309;22;20341;-74
2023/07/11 05:53:50;;;;;;;8.65;4.10;;;;;;;29.53;36.16;101233.31;6306210;22;20334;-74
2023/07/11 05:56:18;;;;;;;8.13;4.30;;;;;;;29.48;35.87;101230.63;6305781;22;20377;-75
2023/07/11 05:58:44;;;;;;;8.57;3.90;;;;;;;29.42;35.83;101233.66;6306285;22;20849;-74
2023/07/11 06:01:16;;;;;;;8.93;4.30;;;;;;;29.29;36.06;101238.66;6306389;22;20358;-74
2023/07/11 06:03:45;;;;;;;6.93;3.90;;;;;;;29.27;36.29;101238.13;6306462;22;20476;-73
2023/07/11 06:06:11;;;;;;;6.95;3.88;;;;;;;29.11;36.78;101233.84;6306613;22;20334;-75
2023/07/11 06:08:37;;;;;;;9.68;4.18;;;;;;;29.29;36.74;101224.19;6306506;22;20791;-75
2023/07/11 06:11:04;;;;;;;7.53;3.92;;;;;;;29.48;35.94;101230.63;6306228;22;20334;-76
2023/07/11 06:13:31;;;;;;;9.27;4.37;;;;;;;29.52;35.91;101228.94;6305550;22;20326;-76
2023/07/11 06:16:02;;;;;;;9.70;4.20;;;;;;;29.65;35.57;101238.41;6306532;22;20707;-75
2023/07/11 06:18:30;;;;;;;8.93;4.30;;;;;;;29.74;35.78;101244.06;6279227;22;20353;-77
2023/07/11 06:20:55;;;;;;;9.43;4.60;;;;;;;29.98;35.74;101233.25;6306655;22;20373;-76
2023/07/11 06:23:21;;;;;;;6.90;4.10;;;;;;;30.33;35.33;101223.00;6306817;22;20407;-76
2023/07/11 06:25:49;;;;;;;6.53;4.17;;;;;;;30.47;34.90;101223.16;6305611;22;20334;-76
2023/07/11 06:28:15;;;;;;;6.53;3.77;;;;;;;30.36;34.19;101227.09;6306394;22;20349;-74
2023/07/11 06:31:17;;;;;;;8.80;4.00;;;;;;;30.28;33.32;101225.81;6306101;22;20337;-75
2023/07/11 06:33:43;;;;;;;8.20;4.00;;;;;;;30.60;33.40;101229.84;6260125;22;20358;-74
2023/07/11 06:36:09;;;;;;;6.13;3.80;;;;;;;30.74;33.07;101218.97;6303678;22;20345;-77
2023/07/11 06:38:35;;;;;;;8.10;3.83;;;;;;;30.94;33.12;101220.69;6304099;22;20366;-75
2023/07/11 06:41:01;;;;;;;6.50;3.80;;;;;;;31.04;32.35;101226.00;6251884;22;20370;-76
2023/07/11 06:43:28;;;;;;;5.70;3.72;;;;;;;31.11;32.70;101214.66;6303516;22;20647;-76
2023/07/11 06:45:56;;;;;;;6.00;3.90;;;;;;;31.29;32.54;101222.06;6276530;22;20334;-76
2023/07/11 06:48:25;;;;;;;7.10;4.07;;;;;;;31.37;32.34;101221.41;6276298;22;20384;-76
2023/07/11 06:50:54;;;;;;;7.93;4.38;;;;;;;31.52;32.39;101219.53;6304704;22;20778;-77
2023/07/11 06:53:20;;;;;;;9.82;3.83;;;;;;;31.69;32.21;101213.50;6304558;22;20340;-75
2023/07/11 06:55:48;;;;;;;9.50;4.00;;;;;;;31.92;32.23;101217.19;6303997;22;20330;-75
2023/07/11 06:58:14;;;;;;;8.35;3.88;;;;;;;31.66;32.40;101222.31;6304571;22;20737;-77
2023/07/11 07:00:41;;;;;;;7.10;3.90;;;;;;;31.36;32.92;101211.53;6304803;22;21021;-76
2023/07/11 07:03:11;;;;;;;6.47;3.92;;;;;;;31.41;33.13;101205.97;6306443;22;20338;-77
2023/07/11 07:05:36;;;;;;;9.07;4.50;;;;;;;31.61;32.91;101206.78;6304205;22;20346;-75
2023/07/11 07:08:02;;;;;;;10.05;4.78;;;;;;;31.86;32.69;101201.97;6304330;22;20396;-76
2023/07/11 07:10:28;;;;;;;10.10;4.53;;;;;;;31.91;32.28;101201.84;6277847;22;20409;-75
2023/07/11 07:12:53;;;;;;;10.87;4.07;;;;;;;32.14;31.40;101200.91;6305665;22;20447;-76
2023/07/11 07:15:19;;;;;;;10.33;3.87;;;;;;;32.29;31.50;101199.78;6304600;22;20418;-74
2023/07/11 07:17:44;;;;;;;9.57;4.20;;;;;;;32.13;31.16;101195.72;6305711;22;20346;-76
2023/07/11 07:20:10;;;;;;;9.77;3.63;;;;;;;32.27;31.23;101191.06;6278175;22;20381;-75
2023/07/11 07:22:36;;;;;;;6.18;3.70;;;;;;;32.45;30.46;101202.22;6278724;22;20358;-76
2023/07/11 07:25:01;;;;;;;8.53;3.80;;;;;;;32.45;30.65;101188.50;6305544;22;20327;-76
2023/07/11 07:27:27;;;;;;;7.57;3.90;;;;;;;32.57;30.76;101188.78;6278391;22;20337;-75
2023/07/11 07:29:52;;;;;;;5.67;3.43;;;;;;;32.41;30.44;101187.47;6279039;22;20357;-75
2023/07/11 07:32:18;;;;;;;9.77;4.00;;;;;;;32.62;30.68;101196.94;6306448;22;20476;-75
2023/07/11 07:34:43;;;;;;;6.93;3.60;;;;;;;32.62;30.08;101196.94;6304799;22;20786;-75
2023/07/11 07:37:09;;;;;;;8.57;4.07;;;;;;;32.76;30.43;101194.19;6304817;22;20432;-76
2023/07/11 07:39:34;;;;;;;6.50;3.50;;;;;;;32.85;29.58;101181.34;6305308;22;20399;-75
2023/07/11 07:41:59;;;;;;;7.90;3.73;;;;;;;33.03;29.67;101187.78;6306284;22;20825;-75
2023/07/11 07:44:25;;;;;;;7.23;3.73;;;;;;;33.10;29.20;101196.41;6304868;22;20840;-75
2023/07/11 07:46:50;;;;;;;10.27;4.47;;;;;;;33.31;29.28;101202.25;6306038;22;20361;-76
2023/07/11 07:49:16;;;;;;;7.77;4.00;;;;;;;33.45;29.16;101201.38;6305753;22;20344;-76
2023/07/11 07:51:41;;;;;;;5.60;3.63;;;;;;;33.56;29.18;101190.94;6305563;22;20330;-76
2023/07/11 07:54:07;;;;;;;8.40;3.90;;;;;;;33.46;28.65;101195.56;6305899;22;20406;-75
2023/07/11 07:56:34;;;;;;;9.43;3.80;;;;;;;33.79;28.59;101189.00;6306021;22;20380;-76
2023/07/11 07:59:00;;;;;;;6.00;3.43;;;;;;;33.85;28.03;101179.47;6304880;22;21000;-76
2023/07/11 08:01:25;;;;;;;9.20;4.10;;;;;;;33.83;27.70;101178.97;6304937;22;20394;-76
2023/07/11 08:03:51;;;;;;;8.00;4.33;;;;;;;33.96;27.98;101182.75;6306391;22;20345;-76
2023/07/11 08:06:17;;;;;;;7.03;3.80;;;;;;;34.06;28.00;101177.75;6305828;22;20624;-77
2023/07/11 08:08:44;;;;;;;6.88;3.80;;;;;;;34.02;27.98;101168.53;6306042;22;20788;-75
2023/07/11 08:11:09;;;;;;;7.97;3.65;;;;;;;33.85;27.46;101174.78;6305434;22;20326;-75
2023/07/11 08:13:35;;;;;;;10.02;3.80;;;;;;;34.00;27.97;101176.31;6305805;22;20344;-77
2023/07/11 08:16:01;;;;;;;8.55;4.55;;;;;;;34.23;27.96;101167.97;6306025;22;20714;-75
2023/07/11 08:18:27;;;;;;;10.75;4.50;;;;;;;34.35;27.62;101161.88;6305250;22;20345;-76
2023/07/11 08:20:53;;;;;;;7.63;4.10;;;;;;;34.24;27.85;101167.66;6306229;22;20453;-76
2023/07/11 08:23:19;;;;;;;6.13;3.70;;;;;;;34.24;26.66;101166.84;6307758;22;20368;-75
2023/07/11 08:25:44;;;;;;;8.85;4.05;;;;;;;34.07;27.16;101162.09;6307284;22;20363;-78
2023/07/11 08:28:10;;;;;;;9.67;3.73;;;;;;;33.91;27.17;101172.72;6306079;22;20380;-76
2023/07/11 08:30:36;;;;;;;6.67;3.83;;;;;;;33.81;26.83;101164.72;6305432;22;20332;-76
2023/07/11 08:33:02;;;;;;;6.53;3.65;;;;;;;33.61;26.42;101175.09;6305458;22;20364;-76
2023/07/11 08:35:28;;;;;;;8.83;4.03;;;;;;;33.63;26.95;101163.81;6305319;22;20330;-75
2023/07/11 08:37:54;;;;;;;8.27;4.03;;;;;;;33.76;26.64;101168.41;6305405;22;20334;-75
2023/07/11 08:40:23;;;;;;;6.38;4.00;;;;;;;33.80;27.10;101168.59;6305042;22;20361;-76
2023/07/11 08:42:49;;;;;;;7.70;4.47;;;;;;;34.15;27.03;101177.00;6305996;22;20334;-76
2023/07/11 08:45:21;;;;;;;6.67;3.80;;;;;;;34.08;26.97;101167.25;6305985;22;20338;-76
2023/07/11 08:47:54;;;;;;;5.65;3.78;;;;;;;33.81;27.72;101176.53;6306621;22;20330;-75
2023/07/11 08:50:28;;;;;;;9.65;3.67;;;;;;;33.86;27.47;101164.59;6306154;22;20789;-76
2023/07/11 08:53:12;;;;;;;8.20;3.90;;;;;;;33.92;27.40;101173.50;6305321;22;20360;-76
2023/07/11 08:55:43;;;;;;;7.78;4.10;;;;;;;33.89;26.86;101167.53;6308083;22;20334;-77
2023/07/11 08:58:26;;;;;;;10.37;3.90;;;;;;;33.88;27.18;101163.13;6281032;22;20462;-76
2023/07/11 09:00:52;;;;;;;8.30;4.03;;;;;;;34.14;26.70;101165.19;6307525;22;20447;-77
2023/07/11 09:03:50;;;;;;;8.82;4.05;;;;;;;34.19;26.32;101165.03;6307286;22;20781;-76
2023/07/11 09:06:20;;;;;;;7.47;4.03;;;;;;;33.94;26.28;101161.06;6239506;22;20356;-76
2023/07/11 09:08:49;;;;;;;6.32;3.53;;;;;;;34.01;26.50;101160.59;6307728;22;20337;-77
2023/07/11 09:11:28;;;;;;;6.85;3.85;;;;;;;33.90;26.37;101163.63;6306623;22;20349;-76
2023/07/11 09:14:01;;;;;;;5.15;3.58;;;;;;;33.80;26.70;101166.69;6306759;22;20341;-77
2023/07/11 09:16:33;;;;;;;9.52;4.13;;;;;;;33.80;27.16;101166.69;6307154;22;20333;-77
2023/07/11 09:19:26;;;;;;;8.77;4.30;;;;;;;33.89;26.76;101163.97;6306832;22;20353;-75
2023/07/11 09:22:00;;;;;;;6.88;3.22;;;;;;;34.18;26.92;101159.88;6308720;22;20373;-75
2023/07/11 09:24:42;;;;;;;9.13;4.22;;;;;;;34.38;27.38;101151.03;6280784;22;20731;-76
2023/07/11 09:27:27;;;;;;;6.93;3.60;;;;;;;34.55;26.87;101152.19;6307849;22;20334;-75
2023/07/11 09:29:54;;;;;;;6.70;3.65;;;;;;;34.76;26.86;101161.44;6307702;22;20381;-76
2023/07/11 09:32:30;;;;;;;6.28;3.83;;;;;;;34.85;26.48;101151.25;6307074;22;20876;-75
2023/07/11 09:34:56;;;;;;;8.38;4.00;;;;;;;34.95;26.68;101152.88;6306306;22;20698;-75
2023/07/11 09:37:43;;;;;;;8.27;4.03;;;;;;;35.12;26.16;101148.47;6279329;22;20340;-77
2023/07/11 09:40:22;;;;;;;9.98;4.13;;;;;;;35.23;26.04;101147.03;6305959;22;20340;-76
2023/07/11 09:42:51;;;;;;;6.37;4.00;;;;;;;35.22;26.01;101148.97;6305910;22;20368;-75
2023/07/11 09:45:19;;;;;;;8.30;4.05;;;;;;;35.29;26.05;101139.38;6306254;22;20707;-76
2023/07/11 09:47:52;;;;;;;5.70;3.90;;;;;;;35.33;26.28;101143.09;6306762;22;20400;-76
2023/07/11 09:50:45;;;;;;;7.20;3.78;;;;;;;35.46;26.12;101142.13;6307157;22;20349;-74
2023/07/11 09:53:19;;;;;;;10.95;4.55;;;;;;;35.42;26.28;101157.69;6307058;22;20399;-76
2023/07/11 09:55:44;;;;;;;8.30;4.00;;;;;;;35.00;25.88;101140.88;6306342;22;20334;-78
2023/07/11 09:58:15;;;;;;;9.10;4.43;;;;;;;35.14;25.99;101137.94;6306514;22;20690;-75
2023/07/11 10:00:51;;;;;;;7.10;3.95;;;;;;;35.38;25.83;101137.41;6279823;22;20366;-76
2023/07/11 10:03:20;;;;;;;7.10;4.10;;;;;;;35.42;25.52;101138.41;6306438;22;20782;-76
2023/07/11 10:05:48;;;;;;;8.75;4.05;;;;;;;35.23;26.16;101136.00;6305831;22;20334;-76
2023/07/11 10:08:18;;;;;;;7.50;3.88;;;;;;;35.39;25.79;101134.34;6306468;22;20794;-76
2023/07/11 10:10:50;;;;;;;9.05;4.07;;;;;;;35.11;25.73;101128.38;6305965;22;20326;-77
2023/07/11 10:13:16;;;;;;;8.43;4.33;;;;;;;35.23;26.18;101123.03;6306638;22;20356;-76
2023/07/11 10:15:43;;;;;;;6.17;3.80;;;;;;;35.34;25.97;101133.72;6306772;22;20365;-76
2023/07/11 10:18:20;;;;;;;6.22;3.70;;;;;;;35.35;26.18;101116.84;6307757;22;20334;-75
2023/07/11 10:21:15;;;;;;;7.53;3.85;;;;;;;35.60;26.34;101122.59;6307278;22;20397;-77
2023/07/11 10:23:46;;;;;;;6.88;3.70;;;;;;;35.66;26.32;101118.50;6294744;22;20420;-75
2023/07/11 10:26:27;;;;;;;6.03;3.63;;;;;;;35.26;27.04;101124.34;6307759;22;20342;-75
2023/07/11 10:28:52;;;;;;;6.37;3.73;;;;;;;35.18;26.97;101125.91;6306401;22;20337;-76
2023/07/11 10:31:23;;;;;;;6.70;3.83;;;;;;;35.22;26.57;101120.59;6307801;22;20330;-75
2023/07/11 10:33:57;;;;;;;6.10;4.13;;;;;;;35.47;26.42;101107.06;6307511;22;20825;-76
2023/07/11 10:36:37;;;;;;;6.53;3.90;;;;;;;35.74;26.67;101112.16;6308113;22;20336;-76
2023/07/11 10:39:17;;;;;;;11.00;3.85;;;;;;;35.75;26.51;101115.75;6306554;22;20422;-78
2023/07/11 10:41:57;;;;;;;7.82;4.10;;;;;;;35.81;26.24;101111.66;6306122;22;20381;-75
2023/07/11 10:44:40;;;;;;;5.40;3.45;;;;;;;35.66;25.81;101101.16;6306347;22;20797;-75
2023/07/11 10:47:08;;;;;;;8.00;3.88;;;;;;;35.44;25.94;101113.22;6308130;22;20461;-76
2023/07/11 10:49:43;;;;;;;9.53;3.70;;;;;;;35.24;26.33;101096.28;6279850;22;20366;-76
2023/07/11 10:52:25;;;;;;;8.48;4.38;;;;;;;35.46;26.41;101099.97;6279946;22;20341;-77
2023/07/11 10:55:05;;;;;;;6.97;3.63;;;;;;;35.74;26.00;101089.31;6307338;22;20334;-76
2023/07/11 10:57:47;;;;;;;9.60;3.95;;;;;;;35.76;25.89;101090.59;6306414;22;20374;-76
2023/07/11 11:00:16;;;;;;;5.80;4.10;;;;;;;35.51;25.95;101086.78;6279944;22;20411;-76
2023/07/11 11:02:55;;;;;;;6.78;4.05;;;;;;;35.84;25.48;101086.19;6308485;22;20797;-77
2023/07/11 11:05:50;;;;;;;10.15;4.18;;;;;;;35.88;25.47;101095.41;6305846;22;20371;-76
2023/07/11 11:08:34;;;;;;;9.32;3.85;;;;;;;35.79;25.97;101083.59;6261035;22;20754;-76
2023/07/11 11:11:18;;;;;;;6.55;3.83;;;;;;;35.93;25.85;101078.66;6307024;22;20342;-76
2023/07/11 11:14:10;;;;;;;8.07;4.10;;;;;;;36.05;25.25;101088.97;6306096;22;20336;-76
2023/07/11 11:16:44;;;;;;;8.03;4.30;;;;;;;35.98;25.29;101083.19;6279488;22;20643;-79
2023/07/11 11:19:22;;;;;;;6.72;3.83;;;;;;;36.02;25.75;101072.28;6306438;22;20402;-80
2023/07/11 11:22:05;;;;;;;9.00;3.90;;;;;;;36.19;25.83;101069.41;6305182;22;20656;-76
2023/07/11 11:24:46;;;;;;;10.27;4.05;;;;;;;36.28;25.54;101077.63;6278507;22;20350;-77
2023/07/11 11:27:49;;;;;;;8.70;3.57;;;;;;;36.00;24.76;101064.34;6279345;22;20354;-75
2023/07/11 11:30:17;;;;;;;8.52;3.92;;;;;;;36.17;24.56;101063.41;6260712;22;20376;-77